createdAt,value
2023-02-09T00:00:13.022Z,14.43
2023-02-09T00:02:17.575Z,14.40
2023-02-09T00:04:22.304Z,15.20
2023-02-09T00:06:24.407Z,15.15
2023-02-09T00:08:26.178Z,17.52
2023-02-09T00:10:30.469Z,14.35
2023-02-09T00:12:54.432Z,15.50
2023-02-09T00:14:55.890Z,15.88
2023-02-09T00:16:57.322Z,14.40
2023-02-09T00:18:58.769Z,14.05
2023-02-09T00:21:07.446Z,14.82
2023-02-09T00:23:11.644Z,15.85
2023-02-09T00:25:13.066Z,14.65
2023-02-09T00:27:14.692Z,15.48
2023-02-09T00:29:23.870Z,16.00
2023-02-09T00:31:25.525Z,14.93
2023-02-09T00:33:45.621Z,15.30
2023-02-09T00:35:47.132Z,15.30
2023-02-09T00:37:48.599Z,14.75
2023-02-09T00:39:50.003Z,15.68
2023-02-09T00:42:06.095Z,16.65
2023-02-09T00:44:07.520Z,15.25
2023-02-09T00:46:09.401Z,15.55
2023-02-09T00:48:10.867Z,15.48
2023-02-09T00:50:12.308Z,16.45
2023-02-09T00:52:16.401Z,15.52
2023-02-09T00:54:17.950Z,15.30
2023-02-09T00:56:19.387Z,16.02
2023-02-09T00:58:20.913Z,14.82
2023-02-09T01:00:22.407Z,15.88
2023-02-09T01:04:30.987Z,17.73
2023-02-09T01:06:32.898Z,14.48
2023-02-09T01:08:37.005Z,15.25
2023-02-09T01:10:41.301Z,15.90
2023-02-09T01:12:45.722Z,15.88
2023-02-09T01:14:47.213Z,15.07
2023-02-09T01:16:48.658Z,14.52
2023-02-09T01:18:50.219Z,16.55
2023-02-09T01:20:54.487Z,15.52
2023-02-09T01:22:55.916Z,16.15
2023-02-09T01:25:00.386Z,16.92
2023-02-09T01:27:02.430Z,17.48
2023-02-09T01:29:06.532Z,19.92
2023-02-09T01:31:17.795Z,21.38
2023-02-09T01:33:19.318Z,21.60
2023-02-09T01:37:24.943Z,19.95
2023-02-09T01:39:44.892Z,17.98
2023-02-09T01:41:46.331Z,18.15
2023-02-09T01:43:51.922Z,20.20
2023-02-09T01:45:56.146Z,21.27
2023-02-09T01:47:59.838Z,20.42
2023-02-09T01:50:01.710Z,20.80
2023-02-09T01:52:14.506Z,22.52
2023-02-09T01:54:32.421Z,23.48
2023-02-09T01:56:33.911Z,21.50
2023-02-09T01:58:35.530Z,20.92
2023-02-09T02:00:41.822Z,21.35
2023-02-09T02:02:57.031Z,20.08
2023-02-09T02:05:10.045Z,21.58
2023-02-09T02:07:29.150Z,19.08
2023-02-09T02:09:38.647Z,19.98
2023-02-09T02:11:50.796Z,20.55
2023-02-09T02:13:57.419Z,21.45
2023-02-09T02:16:30.727Z,21.23
2023-02-09T02:18:44.550Z,21.83
2023-02-09T02:20:59.915Z,18.90
2023-02-09T02:23:24.325Z,19.73
2023-02-09T02:25:50.704Z,19.95
2023-02-09T02:28:22.234Z,18.90
2023-02-09T02:30:39.089Z,19.77
2023-02-09T02:32:51.396Z,19.67
2023-02-09T02:35:11.186Z,19.38
2023-02-09T02:37:38.541Z,20.20
2023-02-09T02:39:54.929Z,20.00
2023-02-09T02:42:17.609Z,19.20
2023-02-09T02:44:19.585Z,20.70
2023-02-09T02:46:21.050Z,20.90
2023-02-09T02:48:40.906Z,18.92
2023-02-09T02:50:48.327Z,18.13
2023-02-09T02:52:51.796Z,20.90
2023-02-09T02:54:57.356Z,19.08
2023-02-09T02:57:00.519Z,20.30
2023-02-09T02:59:03.949Z,22.45
2023-02-09T03:01:11.186Z,18.73
2023-02-09T03:03:21.211Z,22.67
2023-02-09T03:05:23.614Z,24.00
2023-02-09T03:07:25.111Z,24.83
2023-02-09T03:09:26.843Z,29.60
2023-02-09T03:11:31.104Z,26.67
2023-02-09T03:13:38.992Z,24.85
2023-02-09T03:15:50.282Z,23.33
2023-02-09T03:17:59.905Z,22.95
2023-02-09T03:20:07.949Z,21.83
2023-02-09T03:22:17.695Z,20.17
2023-02-09T03:24:27.683Z,22.27
2023-02-09T03:26:37.400Z,24.80
2023-02-09T03:28:39.962Z,21.58
2023-02-09T03:31:00.560Z,23.40
2023-02-09T03:33:05.365Z,24.13
2023-02-09T03:35:14.595Z,23.80
2023-02-09T03:37:17.440Z,22.77
2023-02-09T03:39:21.676Z,23.48
2023-02-09T03:41:23.133Z,23.38
2023-02-09T03:43:44.551Z,21.63
2023-02-09T03:45:48.902Z,21.80
2023-02-09T03:47:50.329Z,21.92
2023-02-09T03:50:10.680Z,21.98
2023-02-09T03:52:12.985Z,22.52
2023-02-09T03:54:17.719Z,22.33
2023-02-09T03:56:19.181Z,24.40
2023-02-09T03:58:23.213Z,23.73
2023-02-09T04:00:27.710Z,22.67
2023-02-09T04:02:30.007Z,21.13
2023-02-09T04:04:34.637Z,21.52
2023-02-09T04:06:36.265Z,22.08
2023-02-09T04:08:43.099Z,20.80
2023-02-09T04:10:47.314Z,25.25
2023-02-09T04:12:51.829Z,23.88
2023-02-09T04:14:56.267Z,25.67
2023-02-09T04:16:57.777Z,23.15
2023-02-09T04:18:59.225Z,23.02
2023-02-09T04:21:03.633Z,22.20
2023-02-09T04:23:07.607Z,25.05
2023-02-09T04:25:09.067Z,24.35
2023-02-09T04:27:13.584Z,27.15
2023-02-09T04:29:15.160Z,23.77
2023-02-09T04:33:21.343Z,23.30
2023-02-09T04:35:43.700Z,26.38
2023-02-09T04:37:45.917Z,25.17
2023-02-09T04:39:47.356Z,23.70
2023-02-09T04:41:49.085Z,24.58
2023-02-09T04:43:50.576Z,26.92
2023-02-09T04:45:52.310Z,25.88
2023-02-09T04:47:53.736Z,24.70
2023-02-09T04:49:57.822Z,25.42
2023-02-09T04:51:59.234Z,23.90
2023-02-09T04:54:00.683Z,27.50
2023-02-09T04:56:05.323Z,25.25
2023-02-09T04:58:29.268Z,27.20
2023-02-09T05:00:30.789Z,26.80
2023-02-09T05:02:32.202Z,27.00
2023-02-09T05:04:33.612Z,27.73
2023-02-09T05:06:36.174Z,27.92
2023-02-09T05:08:41.786Z,28.55
2023-02-09T05:10:45.136Z,28.63
2023-02-09T05:12:48.649Z,27.80
2023-02-09T05:14:55.041Z,27.98
2023-02-09T05:17:00.661Z,27.38
2023-02-09T05:19:04.616Z,27.15
2023-02-09T05:21:07.655Z,25.85
2023-02-09T05:23:10.863Z,26.88
2023-02-09T05:25:17.080Z,26.77
2023-02-09T05:27:20.653Z,27.05
2023-02-09T05:29:29.491Z,26.35
2023-02-09T05:31:38.889Z,26.63
2023-02-09T05:33:45.140Z,27.20
2023-02-09T05:35:47.122Z,26.00
2023-02-09T05:39:52.904Z,26.33
2023-02-09T05:42:13.144Z,28.60
2023-02-09T05:44:17.460Z,27.58
2023-02-09T05:46:21.841Z,28.70
2023-02-09T05:48:23.348Z,28.52
2023-02-09T05:50:43.631Z,28.75
2023-02-09T05:52:48.246Z,28.30
2023-02-09T05:54:52.487Z,25.50
2023-02-09T05:56:53.921Z,27.67
2023-02-09T05:58:55.624Z,28.27
2023-02-09T06:03:04.086Z,27.35
2023-02-09T06:05:05.742Z,26.52
2023-02-09T06:07:07.138Z,29.15
2023-02-09T06:11:12.865Z,27.27
2023-02-09T06:13:14.268Z,29.65
2023-02-09T06:17:38.490Z,26.33
2023-02-09T06:19:42.564Z,28.38
2023-02-09T06:21:44.575Z,30.60
2023-02-09T06:23:46.231Z,29.25
2023-02-09T06:25:48.316Z,28.70
2023-02-09T06:27:50.481Z,29.58
2023-02-09T06:29:54.566Z,28.27
2023-02-09T06:31:56.183Z,31.38
2023-02-09T06:33:57.845Z,28.52
2023-02-09T06:38:03.251Z,31.90
2023-02-09T06:40:07.552Z,33.97
2023-02-09T06:42:08.977Z,33.38
2023-02-09T06:44:11.424Z,33.22
2023-02-09T06:46:13.365Z,34.17
2023-02-09T06:48:33.820Z,32.50
2023-02-09T06:50:38.872Z,31.23
2023-02-09T06:52:43.396Z,35.00
2023-02-09T06:54:47.841Z,35.28
2023-02-09T06:56:49.261Z,30.60
2023-02-09T06:58:50.726Z,31.33
2023-02-09T07:02:56.698Z,31.70
2023-02-09T07:04:58.530Z,31.15
2023-02-09T07:07:00.069Z,30.95
2023-02-09T07:09:07.637Z,31.30
2023-02-09T07:11:10.581Z,32.40
2023-02-09T07:13:12.075Z,32.97
2023-02-09T07:15:14.088Z,33.97
2023-02-09T07:17:18.112Z,32.97
2023-02-09T07:19:19.548Z,33.90
2023-02-09T07:21:23.724Z,32.72
2023-02-09T07:23:25.757Z,31.42
2023-02-09T07:25:30.159Z,34.33
2023-02-09T07:27:34.562Z,34.03
2023-02-09T07:29:35.989Z,33.38
2023-02-09T07:31:37.665Z,33.28
2023-02-09T07:33:39.226Z,33.80
2023-02-09T07:37:44.904Z,32.95
2023-02-09T07:39:49.439Z,33.42
2023-02-09T07:41:51.122Z,32.95
2023-02-09T07:43:56.065Z,34.42
2023-02-09T07:46:17.454Z,30.67
2023-02-09T07:48:18.993Z,32.65
2023-02-09T07:50:23.113Z,31.98
2023-02-09T07:52:27.017Z,31.60
2023-02-09T07:54:28.587Z,33.13
2023-02-09T07:56:30.463Z,30.42
2023-02-09T07:58:32.142Z,32.58
2023-02-09T08:00:36.525Z,31.85
2023-02-09T08:02:40.817Z,32.53
2023-02-09T08:04:43.569Z,31.98
2023-02-09T08:06:45.923Z,34.30
2023-02-09T08:09:10.929Z,33.90
2023-02-09T08:11:27.719Z,34.00
2023-02-09T08:13:45.327Z,36.53
2023-02-09T08:15:59.907Z,32.67
2023-02-09T08:18:09.520Z,32.25
2023-02-09T08:20:24.700Z,33.47
2023-02-09T08:22:40.086Z,32.80
2023-02-09T08:24:52.776Z,32.13
2023-02-09T08:26:59.856Z,34.08
2023-02-09T08:29:11.907Z,35.65
2023-02-09T08:31:23.091Z,35.05
2023-02-09T08:33:32.087Z,33.30
2023-02-09T08:35:44.744Z,31.63
2023-02-09T08:37:55.483Z,33.85
2023-02-09T08:40:10.887Z,32.60
2023-02-09T08:42:21.747Z,33.20
2023-02-09T08:44:36.071Z,33.70
2023-02-09T08:46:42.226Z,33.45
2023-02-09T08:48:47.609Z,33.63
2023-02-09T08:50:49.086Z,35.05
2023-02-09T08:52:53.531Z,33.70
2023-02-09T08:54:57.926Z,34.33
2023-02-09T08:56:59.449Z,34.35
2023-02-09T08:59:20.227Z,35.25
2023-02-09T09:01:21.913Z,34.70
2023-02-09T09:05:48.314Z,31.42
2023-02-09T09:07:52.758Z,32.78
2023-02-09T09:09:54.324Z,32.70
2023-02-09T09:11:55.935Z,33.17
2023-02-09T09:14:00.350Z,37.75
2023-02-09T09:16:21.839Z,34.33
2023-02-09T09:18:24.562Z,33.83
2023-02-09T09:20:28.865Z,35.75
2023-02-09T09:22:30.485Z,40.28
2023-02-09T09:24:32.197Z,46.03
2023-02-09T09:26:36.685Z,44.67
2023-02-09T09:30:45.291Z,44.33
2023-02-09T09:32:53.121Z,52.67
2023-02-09T09:34:55.693Z,52.70
2023-02-09T09:37:03.203Z,46.95
2023-02-09T09:39:07.525Z,45.65
2023-02-09T09:41:19.861Z,40.92
2023-02-09T09:43:34.926Z,37.35
2023-02-09T09:45:38.147Z,36.75
2023-02-09T09:47:43.055Z,32.15
2023-02-09T09:49:44.567Z,31.95
2023-02-09T09:54:14.272Z,31.20
2023-02-09T09:56:16.971Z,28.98
2023-02-09T09:58:18.962Z,29.58
2023-02-09T10:00:25.956Z,26.90
2023-02-09T10:02:29.977Z,27.40
2023-02-09T10:04:34.506Z,26.90
2023-02-09T10:06:36.112Z,28.08
2023-02-09T10:08:45.705Z,28.00
2023-02-09T10:10:55.588Z,27.02
2023-02-09T10:13:03.295Z,29.38
2023-02-09T10:15:36.986Z,25.83
2023-02-09T10:17:41.365Z,24.05
2023-02-09T10:19:43.071Z,23.70
2023-02-09T10:21:44.919Z,23.95
2023-02-09T10:23:50.540Z,24.75
2023-02-09T10:25:57.709Z,21.23
2023-02-09T10:28:06.459Z,21.45
2023-02-09T10:30:19.071Z,20.90
2023-02-09T10:32:41.690Z,20.20
2023-02-09T10:34:54.148Z,21.27
2023-02-09T10:37:05.031Z,18.35
2023-02-09T10:39:12.110Z,17.08
2023-02-09T10:41:16.450Z,16.77
2023-02-09T10:43:22.550Z,15.73
2023-02-09T10:45:27.082Z,13.82
2023-02-09T10:47:30.747Z,16.40
2023-02-09T10:49:36.108Z,16.98
2023-02-09T10:52:14.980Z,16.95
2023-02-09T10:54:20.670Z,18.58
2023-02-09T10:56:24.510Z,16.23
2023-02-09T10:58:30.949Z,16.02
2023-02-09T11:00:37.171Z,15.48
2023-02-09T11:03:01.887Z,15.07
2023-02-09T11:05:23.396Z,15.55
2023-02-09T11:07:28.022Z,15.55
2023-02-09T11:09:36.253Z,14.40
2023-02-09T11:11:39.129Z,17.30
2023-02-09T11:13:40.852Z,17.30
2023-02-09T11:15:52.941Z,16.60
2023-02-09T11:18:20.192Z,16.67
2023-02-09T11:20:41.131Z,20.67
2023-02-09T11:22:54.388Z,18.27
2023-02-09T11:25:10.094Z,19.25
2023-02-09T11:27:31.806Z,19.13
2023-02-09T11:30:11.107Z,18.15
2023-02-09T11:32:26.011Z,19.70
2023-02-09T11:34:34.046Z,20.75
2023-02-09T11:36:45.951Z,20.05
2023-02-09T11:39:32.181Z,19.10
2023-02-09T11:42:03.390Z,17.52
2023-02-09T11:44:06.674Z,18.20
2023-02-09T11:46:21.773Z,18.50
2023-02-09T11:48:32.759Z,14.77
2023-02-09T11:50:37.709Z,16.48
2023-02-09T11:52:51.163Z,16.05
2023-02-09T11:54:55.281Z,17.20
2023-02-09T11:56:59.920Z,13.90
2023-02-09T11:59:09.051Z,14.60
2023-02-09T12:01:29.213Z,16.67
2023-02-09T12:03:33.519Z,14.52
2023-02-09T12:07:45.417Z,12.02
2023-02-09T12:10:05.453Z,14.13
2023-02-09T12:12:12.684Z,14.18
2023-02-09T12:14:23.504Z,11.45
2023-02-09T12:16:31.214Z,13.50
2023-02-09T12:18:34.944Z,13.55
2023-02-09T12:20:41.875Z,13.68
2023-02-09T12:22:47.665Z,13.18
2023-02-09T12:25:22.966Z,13.17
2023-02-09T12:27:27.337Z,13.18
2023-02-09T12:29:41.451Z,14.10
2023-02-09T12:32:01.529Z,14.35
2023-02-09T12:34:13.634Z,13.40
2023-02-09T12:36:18.175Z,13.77
2023-02-09T12:38:22.365Z,13.70
2023-02-09T12:40:24.351Z,13.60
2023-02-09T12:42:27.202Z,13.38
2023-02-09T12:44:28.608Z,12.50
2023-02-09T12:49:22.505Z,12.32
2023-02-09T12:51:56.098Z,12.65
2023-02-09T12:53:57.569Z,12.02
2023-02-09T12:56:04.139Z,12.43
2023-02-09T12:58:26.865Z,9.93
2023-02-09T13:00:32.003Z,10.07
2023-02-09T13:02:56.160Z,9.80
2023-02-09T13:05:00.618Z,9.15
2023-02-09T13:07:38.636Z,10.82
2023-02-09T13:10:19.532Z,9.75
2023-02-09T13:12:30.965Z,10.73
2023-02-09T13:14:32.732Z,9.68
2023-02-09T13:16:43.993Z,9.90
2023-02-09T13:18:57.109Z,8.82
2023-02-09T13:21:07.246Z,9.45
2023-02-09T13:25:22.066Z,10.18
2023-02-09T13:27:47.376Z,10.02
2023-02-09T13:29:53.620Z,9.05
2023-02-09T13:32:13.546Z,8.57
2023-02-09T13:34:20.537Z,8.77
2023-02-09T13:36:35.453Z,8.50
2023-02-09T13:38:55.652Z,8.20
2023-02-09T13:43:10.257Z,8.38
2023-02-09T13:45:30.597Z,8.02
2023-02-09T13:47:51.007Z,9.73
2023-02-09T13:49:57.075Z,7.97
2023-02-09T13:52:13.832Z,8.25
2023-02-09T13:54:19.897Z,10.00
2023-02-09T13:56:21.468Z,9.05
2023-02-09T13:58:27.620Z,9.75
2023-02-09T14:00:31.318Z,11.17
2023-02-09T14:02:53.362Z,9.45
2023-02-09T14:05:20.200Z,8.55
2023-02-09T14:07:23.861Z,9.52
2023-02-09T14:09:30.694Z,9.80
2023-02-09T14:11:43.126Z,10.15
2023-02-09T14:13:47.869Z,11.23
2023-02-09T14:16:09.428Z,11.13
2023-02-09T14:18:34.681Z,11.68
2023-02-09T14:20:40.640Z,10.55
2023-02-09T14:22:56.035Z,11.65
2023-02-09T14:25:01.124Z,10.80
2023-02-09T14:27:22.238Z,11.32
2023-02-09T14:29:30.040Z,10.75
2023-02-09T14:31:34.070Z,12.00
2023-02-09T14:33:37.366Z,11.20
2023-02-09T14:35:42.217Z,10.93
2023-02-09T14:37:47.477Z,11.27
2023-02-09T14:40:12.305Z,11.32
2023-02-09T14:42:33.195Z,11.38
2023-02-09T14:44:48.686Z,9.73
2023-02-09T14:46:57.897Z,11.50
2023-02-09T14:48:59.479Z,11.30
2023-02-09T14:53:08.330Z,11.82
2023-02-09T14:55:28.551Z,12.38
2023-02-09T14:57:32.014Z,11.57
2023-02-09T14:59:33.574Z,12.73
2023-02-09T15:01:40.701Z,11.52
2023-02-09T15:03:42.285Z,12.55
2023-02-09T15:07:53.134Z,12.45
2023-02-09T15:09:57.496Z,11.43
2023-02-09T15:12:26.644Z,11.40
2023-02-09T15:14:31.966Z,11.93
2023-02-09T15:16:36.133Z,12.68
2023-02-09T15:18:39.397Z,12.20
2023-02-09T15:20:59.730Z,10.63
2023-02-09T15:23:01.249Z,10.95
2023-02-09T15:25:02.696Z,10.90
2023-02-09T15:27:04.338Z,10.30
2023-02-09T15:29:10.413Z,10.90
2023-02-09T15:31:15.963Z,11.77
2023-02-09T15:33:17.980Z,11.88
2023-02-09T15:35:22.004Z,12.30
2023-02-09T15:37:32.830Z,10.60
2023-02-09T15:39:58.668Z,11.82
2023-02-09T15:42:24.450Z,13.25
2023-02-09T15:44:47.406Z,12.75
2023-02-09T15:47:09.942Z,10.35
2023-02-09T15:49:17.279Z,10.55
2023-02-09T15:51:18.777Z,10.40
2023-02-09T15:53:23.124Z,11.40
2023-02-09T15:55:31.024Z,10.43
2023-02-09T15:57:32.629Z,10.82
2023-02-09T15:59:34.069Z,10.98
2023-02-09T16:01:35.637Z,11.02
2023-02-09T16:04:08.359Z,10.07
2023-02-09T16:06:33.480Z,11.00
2023-02-09T16:08:54.514Z,9.82
2023-02-09T16:10:56.444Z,10.75
2023-02-09T16:13:01.166Z,10.25
2023-02-09T16:15:13.026Z,12.07
2023-02-09T16:17:14.608Z,10.52
2023-02-09T16:19:21.204Z,10.43
2023-02-09T16:21:29.121Z,9.95
2023-02-09T16:23:34.346Z,10.52
2023-02-09T16:25:35.770Z,10.02
2023-02-09T16:27:37.286Z,9.65
2023-02-09T16:31:45.405Z,10.40
2023-02-09T16:33:46.933Z,9.80
2023-02-09T16:35:52.077Z,11.70
2023-02-09T16:37:53.757Z,11.48
2023-02-09T16:39:55.469Z,12.82
2023-02-09T16:41:57.397Z,11.57
2023-02-09T16:44:04.399Z,11.73
2023-02-09T16:46:10.586Z,12.55
2023-02-09T16:48:18.638Z,12.88
2023-02-09T16:50:22.991Z,11.43
2023-02-09T16:52:43.450Z,11.38
2023-02-09T16:54:48.784Z,12.43
2023-02-09T16:56:54.582Z,12.40
2023-02-09T16:58:56.303Z,13.07
2023-02-09T17:03:05.182Z,15.38
2023-02-09T17:05:20.755Z,19.15
2023-02-09T17:07:30.080Z,17.58
2023-02-09T17:09:34.689Z,16.80
2023-02-09T17:11:54.931Z,14.85
2023-02-09T17:13:59.109Z,16.13
2023-02-09T17:16:04.553Z,15.20
2023-02-09T17:18:07.321Z,14.90
2023-02-09T17:20:15.381Z,14.95
2023-02-09T17:22:19.588Z,15.93
2023-02-09T17:24:21.185Z,16.10
2023-02-09T17:26:43.606Z,18.13
2023-02-09T17:30:50.848Z,18.10
2023-02-09T17:33:17.601Z,16.23
2023-02-09T17:35:53.076Z,16.52
2023-02-09T17:37:55.689Z,15.18
2023-02-09T17:40:19.003Z,16.45
2023-02-09T17:42:23.074Z,15.82
2023-02-09T17:44:45.098Z,17.10
2023-02-09T17:46:52.175Z,16.00
2023-02-09T17:48:57.908Z,17.33
2023-02-09T17:51:07.970Z,17.77
2023-02-09T17:53:25.342Z,17.17
2023-02-09T17:55:33.124Z,16.75
2023-02-09T17:57:36.335Z,14.80
2023-02-09T17:59:39.274Z,15.07
2023-02-09T18:01:45.751Z,14.73
2023-02-09T18:03:47.384Z,16.23
2023-02-09T18:05:51.147Z,15.32
2023-02-09T18:07:53.044Z,15.93
2023-02-09T18:09:57.410Z,16.58
2023-02-09T18:12:04.685Z,16.33
2023-02-09T18:14:25.512Z,18.52
2023-02-09T18:16:27.392Z,19.30
2023-02-09T18:18:47.604Z,18.23
2023-02-09T18:20:49.167Z,19.98
2023-02-09T18:22:53.473Z,19.92
2023-02-09T18:25:00.076Z,29.60
2023-02-09T18:27:01.545Z,21.33
2023-02-09T18:29:09.031Z,19.88
2023-02-09T18:31:14.398Z,17.75
2023-02-09T18:33:16.497Z,20.15
2023-02-09T18:35:22.424Z,19.80
2023-02-09T18:37:42.304Z,18.98
2023-02-09T18:39:46.520Z,19.08
2023-02-09T18:41:54.876Z,18.33
2023-02-09T18:43:56.834Z,17.17
2023-02-09T18:45:58.549Z,17.95
2023-02-09T18:48:00.394Z,15.52
2023-02-09T18:50:21.443Z,16.70
2023-02-09T18:52:25.211Z,20.98
2023-02-09T18:54:31.067Z,18.55
2023-02-09T18:56:35.596Z,18.95
2023-02-09T18:58:40.109Z,20.13
2023-02-09T19:00:41.579Z,18.90
2023-02-09T19:02:44.266Z,15.68
2023-02-09T19:04:45.878Z,15.50
2023-02-09T19:06:50.858Z,18.30
2023-02-09T19:08:52.335Z,15.85
2023-02-09T19:10:53.793Z,14.82
2023-02-09T19:12:59.589Z,15.40
2023-02-09T19:15:01.368Z,14.60
2023-02-09T19:17:03.332Z,14.57
2023-02-09T19:19:09.315Z,16.50
2023-02-09T19:21:13.523Z,21.40
2023-02-09T19:25:19.917Z,18.85
2023-02-09T19:27:26.075Z,16.40
2023-02-09T19:29:28.937Z,18.10
2023-02-09T19:31:30.755Z,18.20
2023-02-09T19:33:32.272Z,18.17
2023-02-09T19:35:33.738Z,17.88
2023-02-09T19:37:36.256Z,19.75
2023-02-09T19:39:39.884Z,18.25
2023-02-09T19:41:41.348Z,18.10
2023-02-09T19:43:42.838Z,19.08
2023-02-09T19:46:02.856Z,18.08
2023-02-09T19:48:07.764Z,19.50
2023-02-09T19:50:09.677Z,19.15
2023-02-09T19:52:11.092Z,19.45
2023-02-09T19:54:15.140Z,18.77
2023-02-09T19:56:35.101Z,18.45
2023-02-09T19:58:55.419Z,19.52
2023-02-09T20:00:56.912Z,18.40
2023-02-09T20:05:05.532Z,18.00
2023-02-09T20:07:07.258Z,16.35
2023-02-09T20:09:08.770Z,16.02
2023-02-09T20:11:16.108Z,15.57
2023-02-09T20:13:36.554Z,16.15
2023-02-09T20:15:45.979Z,15.65
2023-02-09T20:19:54.418Z,17.05
2023-02-09T20:21:56.255Z,17.42
2023-02-09T20:23:57.780Z,15.82
2023-02-09T20:26:02.166Z,17.20
2023-02-09T20:28:03.880Z,17.95
2023-02-09T20:30:23.843Z,15.82
2023-02-09T20:32:28.714Z,16.88
2023-02-09T20:34:35.064Z,16.17
2023-02-09T20:36:51.203Z,18.20
2023-02-09T20:39:02.799Z,16.17
2023-02-09T20:41:15.239Z,16.60
2023-02-09T20:43:39.778Z,16.67
2023-02-09T20:46:08.593Z,12.15
2023-02-09T20:48:16.553Z,10.57
2023-02-09T20:50:25.222Z,7.03
2023-02-09T20:52:36.128Z,5.95
2023-02-09T20:54:48.168Z,6.15
2023-02-09T20:57:15.114Z,5.55
2023-02-09T20:59:21.403Z,6.50
2023-02-09T21:01:28.950Z,5.53
2023-02-09T21:03:41.310Z,6.03
2023-02-09T21:05:52.971Z,6.60
2023-02-09T21:08:14.023Z,9.63
2023-02-09T21:10:18.133Z,9.73
2023-02-09T21:12:22.841Z,8.80
2023-02-09T21:14:41.259Z,10.55
2023-02-09T21:16:46.478Z,9.52
2023-02-09T21:18:48.010Z,9.75
2023-02-09T21:20:52.955Z,11.45
2023-02-09T21:22:54.679Z,11.48
2023-02-09T21:27:04.060Z,9.98
2023-02-09T21:29:08.861Z,10.50
2023-02-09T21:31:11.476Z,9.80
2023-02-09T21:33:12.897Z,8.40
2023-02-09T21:35:15.321Z,8.45
2023-02-09T21:37:17.150Z,8.30
2023-02-09T21:39:18.601Z,9.80
2023-02-09T21:41:40.001Z,8.52
2023-02-09T21:43:44.586Z,9.50
2023-02-09T21:45:48.946Z,10.10
2023-02-09T21:48:08.826Z,8.70
2023-02-09T21:50:13.048Z,8.82
2023-02-09T21:52:14.527Z,10.50
2023-02-09T21:54:17.116Z,9.13
2023-02-09T21:56:37.358Z,9.60
2023-02-09T21:58:41.914Z,9.25
2023-02-09T22:00:43.499Z,7.50
2023-02-09T22:04:50.159Z,8.10
2023-02-09T22:06:51.693Z,7.80
2023-02-09T22:08:53.536Z,8.10
2023-02-09T22:11:04.412Z,8.63
2023-02-09T22:13:09.561Z,8.60
2023-02-09T22:15:11.129Z,7.53
2023-02-09T22:17:15.415Z,7.32
2023-02-09T22:19:16.919Z,8.10
2023-02-09T22:21:21.100Z,9.30
2023-02-09T22:23:27.008Z,7.03
2023-02-09T22:25:29.080Z,6.88
2023-02-09T22:27:30.653Z,7.93
2023-02-09T22:29:34.988Z,7.55
2023-02-09T22:31:36.481Z,8.98
2023-02-09T22:33:37.957Z,7.50
2023-02-09T22:35:40.044Z,8.27
2023-02-09T22:37:41.542Z,6.55
2023-02-09T22:39:44.938Z,8.75
2023-02-09T22:41:49.548Z,8.65
2023-02-09T22:43:52.121Z,7.10
2023-02-09T22:45:56.674Z,8.20
2023-02-09T22:47:58.152Z,7.22
2023-02-09T22:49:59.793Z,8.48
2023-02-09T22:52:04.209Z,8.93
2023-02-09T22:54:08.888Z,9.00
2023-02-09T22:56:13.854Z,9.45
2023-02-09T22:58:20.887Z,9.73
2023-02-09T23:00:40.945Z,11.15
2023-02-09T23:02:45.066Z,10.65
2023-02-09T23:04:49.377Z,8.38
2023-02-09T23:06:50.922Z,8.73
2023-02-09T23:08:59.967Z,8.77
2023-02-09T23:11:05.430Z,8.98
2023-02-09T23:13:06.908Z,9.98
2023-02-09T23:17:12.641Z,8.35
2023-02-09T23:19:18.719Z,10.55
2023-02-09T23:21:21.196Z,9.35
2023-02-09T23:23:22.606Z,10.30
2023-02-09T23:25:24.398Z,8.80
2023-02-09T23:27:25.821Z,7.95
2023-02-09T23:29:28.064Z,9.38
2023-02-09T23:31:32.586Z,9.40
2023-02-09T23:33:35.204Z,9.57
2023-02-09T23:35:55.009Z,8.60
2023-02-09T23:38:02.589Z,8.82
2023-02-09T23:40:24.169Z,8.68
2023-02-09T23:42:30.433Z,7.78
2023-02-09T23:44:36.850Z,8.10
2023-02-09T23:46:40.677Z,6.88
2023-02-09T23:48:45.603Z,7.07
2023-02-09T23:50:51.655Z,7.10
2023-02-09T23:52:54.920Z,9.55
2023-02-09T23:55:16.269Z,7.80
2023-02-09T23:57:21.047Z,7.43
2023-02-09T23:59:24.729Z,8.10
